Pittsford, New York
Current Conditions -  °F | °C
As of 9:54 PM on Tuesday 25 Nov 2014 (Local Time) from KROC Reporting Station
Overcast Overcast  
Wind Chill: 28°   Ceiling: 3400
Heat Index: 35°   Visibility: 10mi
Dew Point: 26°   Wind: 9mph
Humidity: 70%   Direction: 260°W
Pressure: 30.19"   Gusts: NA
Location:  43.09°N, 77.51°W
Report Text: KROC 260254Z 26008KT 10SM OVC034 02/M03 A3019 RMK AO2 SLP230 60000 T00171033 51030
Loading
Personal Weather Stations






























Interactive Weather Map New forecast layout! Learn more

10-Day Weather Forecast

Advertisements
Track Severe Weather on mobile